Bookmark and Share
Track history (hours):
 

Blue Star Naxos

Last reported at 2014-Apr-21 14:29 UTC. Time now 2014-Apr-21 15:22 UTC.
Position N 37°31' E 024°23'.

Length 124 m; draft 5 m.

Type: Passenger vessel. MMSI: 239923000.

NotesDate/timePositionNaut miles runAvg speedWind from/ knotsBaromVisibWave heightAir tempDewpointWater temp
2014-Apr-21 14:29N 37°31' E 024°23'2122.4
2014-Apr-21 13:33N 37°31' E 024°50'8 7.8
2014-Apr-21 12:33N 37°27' E 024°58'1413.9
2014-Apr-21 11:33N 37°29' E 025°15'4 3.4
2014-Apr-21 10:32N 37°28' E 025°19'7 6.8
2014-Apr-21 09:33N 37°30' E 025°12'1312.7
2014-Apr-21 08:33N 37°26' E 024°57'1413.8
2014-Apr-21 07:33N 37°31' E 024°40'2222.0
2014-Apr-21 06:33N 37°31' E 024°13'2422.2
2014-Apr-21 05:28N 37°39' E 023°44'1819.5
2014-Apr-21 04:34N 37°57' E 023°38'0 0.3
2014-Apr-21 03:34N 37°57' E 023°38'0 0.0
2014-Apr-21 02:33N 37°57' E 023°38'0 0.0
2014-Apr-21 01:34N 37°57' E 023°38'0 0.0
2014-Apr-21 00:33N 37°57' E 023°38'0 0.0
2014-Apr-20 23:34N 37°57' E 023°38'0 0.0
2014-Apr-20 22:34N 37°57' E 023°38'0 0.0
2014-Apr-20 21:34N 37°57' E 023°38'0 0.0
2014-Apr-20 20:34N 37°57' E 023°38'0 0.0
2014-Apr-20 19:34N 37°57' E 023°38'0 0.0
2014-Apr-20 18:34N 37°57' E 023°38'0 0.0
2014-Apr-20 17:34N 37°57' E 023°38'0 0.0
2014-Apr-20 16:34N 37°57' E 023°38'0 0.0
2014-Apr-20 15:33N 37°57' E 023°38'0 0.0
2014-Apr-20 14:34N 37°57' E 023°38'0 0.0
2014-Apr-20 13:28N 37°57' E 023°38'0 0.0
2014-Apr-20 12:34N 37°57' E 023°38'0 0.0
2014-Apr-20 11:34N 37°57' E 023°38'0 0.0
2014-Apr-20 10:34N 37°57' E 023°38'0 0.0
2014-Apr-20 09:33N 37°57' E 023°38'0 0.0
2014-Apr-20 08:34N 37°57' E 023°38'0 0.0
2014-Apr-20 07:34N 37°57' E 023°38'0 0.0
2014-Apr-20 06:28N 37°57' E 023°38'0 0.0
2014-Apr-20 05:34N 37°57' E 023°38'0 0.0
2014-Apr-20 04:33N 37°57' E 023°38'0 0.0
2014-Apr-20 03:33N 37°57' E 023°38'0 0.0
2014-Apr-20 02:34N 37°57' E 023°38'0 0.0
2014-Apr-20 01:34N 37°57' E 023°38'0 0.0
2014-Apr-20 00:33N 37°57' E 023°38'0 0.0
2014-Apr-19 23:34N 37°57' E 023°38'0 0.0
2014-Apr-19 22:33N 37°57' E 023°38'0 0.0
2014-Apr-19 21:33N 37°57' E 023°38'0 0.0
2014-Apr-19 20:33N 37°57' E 023°38'0 0.0
2014-Apr-19 19:33N 37°57' E 023°38'0 0.0
2014-Apr-19 18:33N 37°57' E 023°38'0 0.0
2014-Apr-19 17:34N 37°57' E 023°38'5 4.6
2014-Apr-19 16:33N 37°52' E 023°39'6619.8
2014-Apr-19 13:14N 37°30' E 024°57'3 4.6
2014-Apr-19 12:33N 37°27' E 024°59'1212.3
2014-Apr-19 11:33N 37°29' E 025°14'4 4.1
2014-Apr-19 10:33N 37°28' E 025°19'6 6.5
2014-Apr-19 09:33N 37°30' E 025°12'1312.8
2014-Apr-19 08:33N 37°26' E 024°57'1413.2
2014-Apr-19 07:31N 37°31' E 024°41'4321.9
2014-Apr-19 05:33N 37°39' E 023°47'1919.1
2014-Apr-19 04:33N 37°57' E 023°38'0 0.5
2014-Apr-19 03:33N 37°57' E 023°38'0 0.0
2014-Apr-19 00:21N 37°57' E 023°38'0 0.0
2014-Apr-18 23:32N 37°57' E 023°38'0 0.0
2014-Apr-18 22:33N 37°57' E 023°38'0 0.0
2014-Apr-18 21:33N 37°57' E 023°38'0 0.0
2014-Apr-18 20:31N 37°57' E 023°38'0 0.0
2014-Apr-18 19:31N 37°57' E 023°38'0 0.0
2014-Apr-18 18:23N 37°57' E 023°38'0 0.0
2014-Apr-18 17:23N 37°57' E 023°38'0 0.0
2014-Apr-18 16:33N 37°57' E 023°38'0 0.0
2014-Apr-18 15:28N 37°57' E 023°38'0 0.0
2014-Apr-18 14:30N 37°57' E 023°38'0 0.0
2014-Apr-18 13:30N 37°57' E 023°38'0 0.0
2014-Apr-18 12:33N 37°57' E 023°38'0 0.0
2014-Apr-18 11:30N 37°57' E 023°38'0 0.0
2014-Apr-18 10:28N 37°57' E 023°38'0 0.0
2014-Apr-18 09:33N 37°57' E 023°38'0 0.0
2014-Apr-18 08:33N 37°57' E 023°38'0 0.0
2014-Apr-18 07:26N 37°57' E 023°38'0 0.0
2014-Apr-18 06:33N 37°57' E 023°38'0 0.0
2014-Apr-18 05:29N 37°57' E 023°38'7 7.5
2014-Apr-18 04:33N 37°50' E 023°40'4220.5
2014-Apr-18 02:30N 37°30' E 024°27'2021.6
2014-Apr-18 01:33N 37°21' E 024°50'2221.7
2014-Apr-18 00:33N 37°11' E 025°15'4 3.8
2014-Apr-17 23:33N 37°09' E 025°19'9 8.5
2014-Apr-17 22:32N 37°05' E 025°09'2020.8
2014-Apr-17 21:33N 37°17' E 024°48'2222.0
2014-Apr-17 20:33N 37°30' E 024°26'4120.6
2014-Apr-17 18:34N 37°47' E 023°39'10 9.5
2014-Apr-17 17:33N 37°57' E 023°38'2 1.6
2014-Apr-17 16:34N 37°56' E 023°37'4421.0
2014-Apr-17 14:28N 37°31' E 024°22'2122.5
2014-Apr-17 13:33N 37°31' E 024°49'8 8.5
2014-Apr-17 12:33N 37°26' E 024°57'1313.5
2014-Apr-17 11:33N 37°29' E 025°14'5 4.6
2014-Apr-17 10:33N 37°28' E 025°19'1212.5
2014-Apr-17 09:33N 37°30' E 025°04'5 5.3
2014-Apr-17 08:33N 37°28' E 024°58'2120.5
2014-Apr-17 07:33N 37°31' E 024°32'2221.8
2014-Apr-17 06:33N 37°34' E 024°05'2121.5
2014-Apr-17 05:33N 37°44' E 023°41'1413.5
2014-Apr-17 04:34N 37°57' E 023°38'2 1.9
2014-Apr-17 03:34N 37°55' E 023°37'4620.5
2014-Apr-17 01:19N 37°30' E 024°25'1821.9
2014-Apr-17 00:28N 37°19' E 024°44'2022.3
2014-Apr-16 23:33N 37°07' E 025°05'1 1.3
2014-Apr-16 22:34N 37°06' E 025°06'2221.8
2014-Apr-16 21:33N 37°19' E 024°44'2221.3
2014-Apr-16 20:31N 37°30' E 024°20'3021.6
2014-Apr-16 19:07N 37°40' E 023°43'1221.7
2014-Apr-16 18:33N 37°51' E 023°37'6 6.2
2014-Apr-16 17:33N 37°57' E 023°38'5 4.7
2014-Apr-16 16:34N 37°52' E 023°39'4020.0
2014-Apr-16 14:33N 37°31' E 024°22'2121.2
2014-Apr-16 13:33N 37°31' E 024°48'9 8.7
2014-Apr-16 12:33N 37°26' E 024°58'1312.9
2014-Apr-16 11:33N 37°29' E 025°13'5 5.0
2014-Apr-16 10:32N 37°28' E 025°19'9 9.3
2014-Apr-16 09:33N 37°32' E 025°09'1211.8
2014-Apr-16 08:33N 37°26' E 024°57'1514.7
2014-Apr-16 07:33N 37°31' E 024°39'2221.7
2014-Apr-16 06:33N 37°32' E 024°12'2222.0
2014-Apr-16 05:33N 37°39' E 023°45'1918.9
2014-Apr-16 04:33N 37°57' E 023°38'0 0.3
2014-Apr-16 03:33N 37°57' E 023°38'0 0.0
2014-Apr-16 02:33N 37°57' E 023°38'0 0.0
2014-Apr-16 01:33N 37°57' E 023°38'0 0.0
2014-Apr-16 00:33N 37°57' E 023°38'0 0.0
2014-Apr-15 23:33N 37°57' E 023°38'0 0.0
2014-Apr-15 22:33N 37°57' E 023°38'0 0.0
2014-Apr-15 21:33N 37°57' E 023°38'0 0.0
2014-Apr-15 20:33N 37°57' E 023°38'0 0.0
2014-Apr-15 19:33N 37°57' E 023°38'0 0.0
2014-Apr-15 18:33N 37°57' E 023°38'0 0.0
2014-Apr-15 17:33N 37°57' E 023°38'3 3.1
2014-Apr-15 16:33N 37°54' E 023°38'4220.6
2014-Apr-15 14:29N 37°31' E 024°23'2110.7
2014-Apr-15 12:34N 37°31' E 024°49'8 8.1
2014-Apr-15 11:34N 37°26' E 024°57'1313.3
2014-Apr-15 10:34N 37°30' E 025°14'5 4.8
2014-Apr-15 09:34N 37°28' E 025°19'9 9.0
2014-Apr-15 08:33N 37°32' E 025°09'1211.4
2014-Apr-15 07:32N 37°26' E 024°57'1414.2
2014-Apr-15 06:34N 37°31' E 024°40'2221.6
2014-Apr-15 05:34N 37°31' E 024°13'3712.4
2014-Apr-15 02:33N 37°57' E 023°38'0 0.0
2014-Apr-15 01:33N 37°57' E 023°38'0 0.0
2014-Apr-15 00:30N 37°57' E 023°38'0 0.0
2014-Apr-14 23:32N 37°57' E 023°38'0 0.0
2014-Apr-14 22:33N 37°57' E 023°38'0 0.0
2014-Apr-14 21:33N 37°57' E 023°38'0 0.0
2014-Apr-14 20:29N 37°57' E 023°38'0 0.0
2014-Apr-14 19:31N 37°57' E 023°38'0 0.0
2014-Apr-14 18:30N 37°57' E 023°38'0 0.0
2014-Apr-14 16:32N 37°57' E 023°38'2 1.7
2014-Apr-14 15:33N 37°55' E 023°37'7017.4
2014-Apr-14 11:34N 37°26' E 024°57'1313.4
2014-Apr-14 10:34N 37°30' E 025°13'5 5.2
2014-Apr-14 09:34N 37°28' E 025°19'8 8.2
2014-Apr-14 08:33N 37°31' E 025°10'1211.4
2014-Apr-14 07:32N 37°26' E 024°57'1515.0
2014-Apr-14 06:33N 37°31' E 024°39'2221.7
2014-Apr-14 05:33N 37°32' E 024°11'36 5.2
2014-Apr-13 22:31N 37°57' E 023°38'0 0.0
2014-Apr-13 21:29N 37°57' E 023°38'0 0.0
2014-Apr-13 20:32N 37°57' E 023°38'0 0.0
2014-Apr-13 19:29N 37°57' E 023°38'0 0.0
2014-Apr-13 18:32N 37°57' E 023°38'0 0.0
2014-Apr-13 17:20N 37°57' E 023°38'2 2.5
2014-Apr-13 16:33N 37°55' E 023°37'4220.8
2014-Apr-13 14:31N 37°31' E 024°21'2122.2
2014-Apr-13 13:33N 37°31' E 024°48'9 8.8
2014-Apr-13 12:33N 37°26' E 024°57'1413.6
2014-Apr-13 11:33N 37°29' E 025°14'5 4.5
2014-Apr-13 10:33N 37°28' E 025°19'6 5.6
2014-Apr-13 09:33N 37°30' E 025°13'1413.4
2014-Apr-13 08:33N 37°26' E 024°57'1313.2
2014-Apr-13 07:33N 37°31' E 024°41'2222.1
2014-Apr-13 06:33N 37°31' E 024°13'2322.3
2014-Apr-13 05:31N 37°38' E 023°45'1915.5
2014-Apr-13 04:15N 37°57' E 023°38'0 0.0
2014-Apr-13 03:29N 37°57' E 023°38'0 0.0
2014-Apr-13 02:06N 37°57' E 023°38'0 0.0
2014-Apr-13 01:26N 37°57' E 023°38'0 0.0
2014-Apr-13 00:31N 37°57' E 023°38'0 0.0
2014-Apr-12 23:32N 37°57' E 023°38'0 0.0
2014-Apr-12 22:28N 37°57' E 023°38'0 0.0
2014-Apr-12 21:26N 37°57' E 023°38'0 0.0
2014-Apr-12 20:33N 37°57' E 023°38'0 0.0
2014-Apr-12 19:33N 37°57' E 023°38'0 0.0
2014-Apr-12 18:26N 37°57' E 023°38'0 0.0
2014-Apr-12 17:30N 37°57' E 023°38'2 2.2
2014-Apr-12 16:34N 37°55' E 023°38'4220.8
2014-Apr-12 14:32N 37°31' E 024°21'2222.2
2014-Apr-12 13:33N 37°31' E 024°49'9 8.6
2014-Apr-12 12:33N 37°26' E 024°57'1413.6
2014-Apr-12 11:33N 37°29' E 025°14'5 4.8
2014-Apr-12 10:33N 37°28' E 025°19'9 9.4
2014-Apr-12 09:34N 37°32' E 025°09'1111.3
2014-Apr-12 08:33N 37°26' E 024°57'1715.4
2014-Apr-12 07:29N 37°31' E 024°36'2021.8
2014-Apr-12 06:33N 37°31' E 024°11'2422.1
2014-Apr-12 05:29N 37°40' E 023°43'1814.7
2014-Apr-12 04:17N 37°57' E 023°38'0 0.0
2014-Apr-12 03:32N 37°57' E 023°38'0 0.0
2014-Apr-12 01:25N 37°57' E 023°38'0 0.0
2014-Apr-12 00:14N 37°57' E 023°38'0 0.0
2014-Apr-11 23:32N 37°57' E 023°38'0 0.0
2014-Apr-11 22:32N 37°57' E 023°38'0 0.0
2014-Apr-11 21:29N 37°57' E 023°38'0 0.0
2014-Apr-11 20:32N 37°57' E 023°38'0 0.0
2014-Apr-11 19:32N 37°57' E 023°38'0 0.0
2014-Apr-11 18:18N 37°57' E 023°38'0 0.0
2014-Apr-11 17:33N 37°57' E 023°38'4 3.6
2014-Apr-11 16:33N 37°53' E 023°38'4120.4
2014-Apr-11 14:32N 37°31' E 024°22'  

Dump ship's entire track history

sailing weather and tide predictions

Blue Star Naxos — SZUI — position and weather